createdAt,value
2018-03-24T00:00:54.375Z,5.96
2018-03-24T00:06:45.052Z,5.25
2018-03-24T00:12:35.722Z,5.55
2018-03-24T00:18:26.437Z,5.42
2018-03-24T00:24:17.155Z,5.21
2018-03-24T00:30:07.843Z,5.58
2018-03-24T00:35:58.543Z,5.06
2018-03-24T00:41:49.224Z,4.49
2018-03-24T00:47:39.945Z,5.04
2018-03-24T00:53:30.630Z,4.31
2018-03-24T00:59:21.305Z,4.54
2018-03-24T01:05:11.999Z,4.58
2018-03-24T01:11:02.713Z,5.62
2018-03-24T01:16:53.371Z,4.78
2018-03-24T01:22:44.074Z,5.77
2018-03-24T01:28:34.786Z,5.57
2018-03-24T01:34:25.461Z,6.2
2018-03-24T01:40:16.247Z,5.68
2018-03-24T01:46:06.858Z,5.92
2018-03-24T01:51:57.550Z,15.82
2018-03-24T01:57:48.234Z,5.78
2018-03-24T02:03:38.907Z,4.68
2018-03-24T02:09:29.644Z,3.99
2018-03-24T02:15:20.331Z,4.7
2018-03-24T02:21:10.968Z,4.68
2018-03-24T02:27:01.722Z,4.53
2018-03-24T02:32:52.378Z,4.1
2018-03-24T02:38:43.072Z,4.82
2018-03-24T02:44:33.777Z,5
2018-03-24T02:50:24.505Z,4.62
2018-03-24T02:56:15.125Z,4.62
2018-03-24T03:02:05.887Z,4.52
2018-03-24T03:07:56.551Z,4.45
2018-03-24T03:13:47.241Z,4.74
2018-03-24T03:19:37.914Z,4.36
2018-03-24T03:25:28.660Z,4.1
2018-03-24T03:31:19.293Z,4.46
2018-03-24T03:37:09.993Z,4.49
2018-03-24T03:43:00.792Z,4.15
2018-03-24T03:48:51.350Z,4.13
2018-03-24T03:54:42.111Z,4.26
2018-03-24T04:00:32.804Z,4.38
2018-03-24T04:06:23.436Z,4.09
2018-03-24T04:12:14.143Z,3.89
2018-03-24T04:18:04.802Z,2.97
2018-03-24T04:23:55.506Z,3.2
2018-03-24T04:29:46.235Z,3.97
2018-03-24T04:35:36.938Z,3.39
2018-03-24T04:41:27.589Z,4.82
2018-03-24T04:47:18.317Z,3.86
2018-03-24T04:53:08.932Z,3.85
2018-03-24T04:58:59.691Z,3.31
2018-03-24T05:04:50.327Z,3.58
2018-03-24T05:10:41.067Z,3.71
2018-03-24T05:16:31.757Z,3.41
2018-03-24T05:22:22.512Z,4.16
2018-03-24T05:28:13.188Z,3.61
2018-03-24T05:34:03.871Z,3.62
2018-03-24T05:39:54.516Z,3.64
2018-03-24T05:45:45.185Z,3.16
2018-03-24T05:51:35.885Z,7.42
2018-03-24T05:57:26.650Z,8.98
2018-03-24T06:03:17.283Z,10.28
2018-03-24T06:09:07.974Z,9.14
2018-03-24T06:14:58.717Z,10.21
2018-03-24T06:20:49.377Z,11.54
2018-03-24T06:26:40.061Z,11.37
2018-03-24T06:32:30.727Z,10.7
2018-03-24T06:38:21.455Z,11.77
2018-03-24T06:44:12.118Z,10.11
2018-03-24T06:50:02.909Z,9.48
2018-03-24T06:55:53.492Z,10.34
2018-03-24T07:01:44.236Z,10.48
2018-03-24T07:07:34.915Z,10.11
2018-03-24T07:13:25.575Z,11.01
2018-03-24T07:19:16.275Z,10.8
2018-03-24T07:25:07.004Z,10.83
2018-03-24T07:30:57.671Z,12.2
2018-03-24T07:36:48.336Z,11.09
2018-03-24T07:42:39.040Z,14.01
2018-03-24T07:48:29.759Z,12.46
2018-03-24T07:54:20.403Z,14.04
2018-03-24T08:00:11.131Z,12.82
2018-03-24T08:06:01.836Z,13.58
2018-03-24T08:11:52.536Z,14.2
2018-03-24T08:17:43.205Z,12.67
2018-03-24T08:23:33.954Z,14.01
2018-03-24T08:29:24.659Z,14.47
2018-03-24T08:35:15.278Z,14.44
2018-03-24T08:41:06.017Z,14.7
2018-03-24T08:46:56.662Z,14.52
2018-03-24T08:52:47.421Z,13.35
2018-03-24T08:58:38.091Z,12.77
2018-03-24T09:04:28.844Z,11.99
2018-03-24T09:10:19.505Z,12.15
2018-03-24T09:16:10.168Z,12.29
2018-03-24T09:22:00.958Z,14
2018-03-24T09:27:51.558Z,11.55
2018-03-24T09:33:42.257Z,10.61
2018-03-24T09:39:32.962Z,9.95
2018-03-24T09:45:23.676Z,8.78
2018-03-24T09:51:14.359Z,8.74
2018-03-24T09:57:05.072Z,8.08
2018-03-24T10:02:55.788Z,10.92
2018-03-24T10:08:46.478Z,7.5
2018-03-24T10:14:37.190Z,11.99
2018-03-24T10:20:27.985Z,7.18
2018-03-24T10:26:18.658Z,5.35
2018-03-24T10:32:09.286Z,4.25
2018-03-24T10:38:00.013Z,6.86
2018-03-24T10:43:50.779Z,5.46
2018-03-24T10:49:41.432Z,4.49
2018-03-24T10:55:32.183Z,4.4
2018-03-24T11:01:22.860Z,4.1
2018-03-24T11:07:13.551Z,8.2
2018-03-24T11:13:04.291Z,3.79
2018-03-24T11:18:54.968Z,4.04
2018-03-24T11:24:45.718Z,3.82
2018-03-24T11:30:36.398Z,4.66
2018-03-24T11:36:27.094Z,4.52
2018-03-24T11:42:17.881Z,3.98
2018-03-24T11:48:08.609Z,3.9
2018-03-24T11:53:59.248Z,3.78
2018-03-24T11:59:49.959Z,4.22
2018-03-24T12:05:40.676Z,3.65
2018-03-24T12:11:31.382Z,3.86
2018-03-24T12:17:22.163Z,3.59
2018-03-24T12:23:12.887Z,3.76
2018-03-24T12:29:03.614Z,3.17
2018-03-24T12:34:54.347Z,3.39
2018-03-24T12:40:45.062Z,3.65
2018-03-24T12:46:35.766Z,4.62
2018-03-24T12:52:26.451Z,3.34
2018-03-24T12:58:17.243Z,2.79
2018-03-24T13:04:07.917Z,2.61
2018-03-24T13:09:58.604Z,2.28
2018-03-24T13:15:49.343Z,3.12
2018-03-24T13:21:40.110Z,4.25
2018-03-24T13:27:30.840Z,4.93
2018-03-24T13:33:21.613Z,2.61
2018-03-24T13:39:12.319Z,3.24
2018-03-24T13:45:02.971Z,3.51
2018-03-24T13:50:53.702Z,3.58
2018-03-24T13:56:44.516Z,2.99
2018-03-24T14:02:35.157Z,3.21
2018-03-24T14:08:25.945Z,2.92
2018-03-24T14:14:16.585Z,3.55
2018-03-24T14:20:07.305Z,2.99
2018-03-24T14:25:58.071Z,3.21
2018-03-24T14:31:48.768Z,3.24
2018-03-24T14:37:39.496Z,3.72
2018-03-24T14:43:30.199Z,2.92
2018-03-24T14:49:20.947Z,3.27
2018-03-24T14:55:11.657Z,3.75
2018-03-24T15:01:02.402Z,3.4
2018-03-24T15:06:53.133Z,4.09
2018-03-24T15:12:43.898Z,3.34
2018-03-24T15:18:34.618Z,3.76
2018-03-24T15:24:25.278Z,3.62
2018-03-24T15:30:16.024Z,3.96
2018-03-24T15:36:06.824Z,4.74
2018-03-24T15:41:57.498Z,4.88
2018-03-24T15:47:48.281Z,4.25
2018-03-24T15:53:39.007Z,5.2
2018-03-24T15:59:29.752Z,4.3
2018-03-24T16:05:21.060Z,4.99
2018-03-24T16:11:11.130Z,4.99
2018-03-24T16:17:01.875Z,4.81
2018-03-24T16:22:52.604Z,4.39
2018-03-24T16:28:43.348Z,4.2
2018-03-24T16:34:34.111Z,4.72
2018-03-24T16:40:24.859Z,4.58
2018-03-24T16:46:15.494Z,4.68
2018-03-24T16:52:06.233Z,4.77
2018-03-24T16:57:56.979Z,5.28
2018-03-24T17:03:47.674Z,9.02
2018-03-24T17:09:38.411Z,7.26
2018-03-24T17:15:29.184Z,5.8
2018-03-24T17:21:19.848Z,6.73
2018-03-24T17:27:10.502Z,7.81
2018-03-24T17:33:01.227Z,8.32
2018-03-24T17:38:52.049Z,6.05
2018-03-24T17:44:42.693Z,6.37
2018-03-24T17:50:33.415Z,5.87
2018-03-24T17:56:24.157Z,5.61
2018-03-24T18:02:14.807Z,6.38
2018-03-24T18:08:05.503Z,10.08
2018-03-24T18:13:56.231Z,10.29
2018-03-24T18:19:46.967Z,6.89
2018-03-24T18:25:37.675Z,9.51
2018-03-24T18:31:28.329Z,8.29
2018-03-24T18:37:19.142Z,8
2018-03-24T18:43:09.815Z,6.95
2018-03-24T18:49:00.477Z,8.01
2018-03-24T18:54:51.186Z,7.29
2018-03-24T19:00:41.892Z,7
2018-03-24T19:06:32.642Z,10.28
2018-03-24T19:12:23.371Z,6.63
2018-03-24T19:18:13.986Z,7.59
2018-03-24T19:24:04.707Z,7.84
2018-03-24T19:29:55.926Z,10
2018-03-24T19:35:46.127Z,7.47
2018-03-24T19:41:36.828Z,6.97
2018-03-24T19:47:27.656Z,6.34
2018-03-24T19:53:18.289Z,7.35
2018-03-24T19:59:08.989Z,13.91
2018-03-24T20:04:59.668Z,8.28
2018-03-24T20:10:50.374Z,7.64
2018-03-24T20:16:41.096Z,8.41
2018-03-24T20:22:31.776Z,29.31
2018-03-24T20:28:22.488Z,30.62
2018-03-24T20:34:13.188Z,21.98
2018-03-24T20:40:03.949Z,19
2018-03-24T20:45:54.582Z,28.72
2018-03-24T20:51:45.300Z,13.32
2018-03-24T20:57:35.970Z,14.13
2018-03-24T21:03:26.694Z,12.43
2018-03-24T21:09:17.404Z,22.97
2018-03-24T21:15:08.082Z,15.85
2018-03-24T21:20:58.802Z,11.54
2018-03-24T21:26:49.512Z,13.4
2018-03-24T21:32:40.231Z,12.78
2018-03-24T21:38:30.906Z,13.44
2018-03-24T21:44:21.577Z,23.05
2018-03-24T21:50:12.307Z,22.45
2018-03-24T21:56:02.996Z,15.24
2018-03-24T22:01:53.731Z,12.42
2018-03-24T22:07:44.391Z,13.67
2018-03-24T22:13:35.076Z,12.95
2018-03-24T22:19:25.795Z,12.84
2018-03-24T22:25:16.459Z,12.69
2018-03-24T22:31:07.201Z,12.45
2018-03-24T22:36:57.865Z,12.15
2018-03-24T22:42:48.572Z,11.4
2018-03-24T22:48:39.232Z,11.91
2018-03-24T22:54:29.951Z,10.8
2018-03-24T23:00:20.668Z,9.8
2018-03-24T23:06:11.440Z,10.47
2018-03-24T23:12:02.130Z,9.43
2018-03-24T23:17:52.989Z,12.13
2018-03-24T23:23:43.435Z,9.3
2018-03-24T23:29:34.107Z,9.68
2018-03-24T23:35:24.816Z,11.93
2018-03-24T23:41:15.477Z,7.93
2018-03-24T23:47:06.193Z,8.74
2018-03-24T23:52:56.886Z,7.06
2018-03-24T23:58:47.575Z,7.77
